sensor_id;sensor_type;location;lat;lon;timestamp;temperature;humidity
25906;DHT22;13713;52.552;13.204;2023-12-29T00:00:27;11.00;90.40
25906;DHT22;13713;52.552;13.204;2023-12-29T00:02:53;11.00;90.40
25906;DHT22;13713;52.552;13.204;2023-12-29T00:05:19;11.00;90.40
25906;DHT22;13713;52.552;13.204;2023-12-29T00:07:44;11.00;90.40
25906;DHT22;13713;52.552;13.204;2023-12-29T00:10:10;11.00;90.40
25906;DHT22;13713;52.552;13.204;2023-12-29T00:12:35;11.00;90.30
25906;DHT22;13713;52.552;13.204;2023-12-29T00:15:01;11.10;90.40
25906;DHT22;13713;52.552;13.204;2023-12-29T00:17:28;11.00;90.40
25906;DHT22;13713;52.552;13.204;2023-12-29T00:19:53;11.00;90.50
25906;DHT22;13713;52.552;13.204;2023-12-29T00:22:19;11.10;90.40
25906;DHT22;13713;52.552;13.204;2023-12-29T00:24:45;11.00;90.50
25906;DHT22;13713;52.552;13.204;2023-12-29T00:27:11;11.00;90.40
25906;DHT22;13713;52.552;13.204;2023-12-29T00:29:36;11.00;90.40
25906;DHT22;13713;52.552;13.204;2023-12-29T00:32:02;11.00;90.50
25906;DHT22;13713;52.552;13.204;2023-12-29T00:34:28;11.00;90.50
25906;DHT22;13713;52.552;13.204;2023-12-29T00:36:54;11.00;90.40
25906;DHT22;13713;52.552;13.204;2023-12-29T00:39:21;11.00;90.40
25906;DHT22;13713;52.552;13.204;2023-12-29T00:41:54;11.00;90.30
25906;DHT22;13713;52.552;13.204;2023-12-29T00:44:22;11.00;90.30
25906;DHT22;13713;52.552;13.204;2023-12-29T00:46:48;11.00;90.30
25906;DHT22;13713;52.552;13.204;2023-12-29T00:49:13;11.00;90.40
25906;DHT22;13713;52.552;13.204;2023-12-29T00:51:39;11.00;90.40
25906;DHT22;13713;52.552;13.204;2023-12-29T00:54:07;11.00;90.40
25906;DHT22;13713;52.552;13.204;2023-12-29T00:56:33;11.00;90.30
25906;DHT22;13713;52.552;13.204;2023-12-29T00:58:59;11.00;90.30
25906;DHT22;13713;52.552;13.204;2023-12-29T01:01:25;11.00;90.40
25906;DHT22;13713;52.552;13.204;2023-12-29T01:03:51;11.00;90.40
25906;DHT22;13713;52.552;13.204;2023-12-29T01:06:20;11.00;90.40
25906;DHT22;13713;52.552;13.204;2023-12-29T01:08:46;11.00;90.30
25906;DHT22;13713;52.552;13.204;2023-12-29T01:11:12;11.00;90.30
25906;DHT22;13713;52.552;13.204;2023-12-29T01:13:38;11.00;90.30
25906;DHT22;13713;52.552;13.204;2023-12-29T01:16:04;11.10;90.40
25906;DHT22;13713;52.552;13.204;2023-12-29T01:18:29;11.00;90.40
25906;DHT22;13713;52.552;13.204;2023-12-29T01:20:55;11.00;90.30
25906;DHT22;13713;52.552;13.204;2023-12-29T01:23:21;11.00;90.40
25906;DHT22;13713;52.552;13.204;2023-12-29T01:25:46;11.00;90.30
25906;DHT22;13713;52.552;13.204;2023-12-29T01:28:12;11.00;90.30
25906;DHT22;13713;52.552;13.204;2023-12-29T01:30:38;11.00;90.30
25906;DHT22;13713;52.552;13.204;2023-12-29T01:33:04;11.00;90.30
25906;DHT22;13713;52.552;13.204;2023-12-29T01:35:30;11.10;90.30
25906;DHT22;13713;52.552;13.204;2023-12-29T01:37:55;11.00;90.20
25906;DHT22;13713;52.552;13.204;2023-12-29T01:40:22;11.00;90.30
25906;DHT22;13713;52.552;13.204;2023-12-29T01:42:48;11.00;90.70
25906;DHT22;13713;52.552;13.204;2023-12-29T01:45:21;11.00;90.40
25906;DHT22;13713;52.552;13.204;2023-12-29T01:47:49;11.00;90.40
25906;DHT22;13713;52.552;13.204;2023-12-29T01:50:17;11.10;90.30
25906;DHT22;13713;52.552;13.204;2023-12-29T01:52:44;11.00;90.30
25906;DHT22;13713;52.552;13.204;2023-12-29T01:55:12;11.00;90.40
25906;DHT22;13713;52.552;13.204;2023-12-29T01:57:39;11.00;90.40
25906;DHT22;13713;52.552;13.204;2023-12-29T02:00:06;11.00;90.40
25906;DHT22;13713;52.552;13.204;2023-12-29T02:02:38;11.00;90.30
25906;DHT22;13713;52.552;13.204;2023-12-29T02:05:05;11.00;90.30
25906;DHT22;13713;52.552;13.204;2023-12-29T02:07:32;11.00;90.30
25906;DHT22;13713;52.552;13.204;2023-12-29T02:09:58;11.00;90.20
25906;DHT22;13713;52.552;13.204;2023-12-29T02:12:25;11.00;90.20
25906;DHT22;13713;52.552;13.204;2023-12-29T02:14:51;11.00;90.30
25906;DHT22;13713;52.552;13.204;2023-12-29T02:17:29;11.00;90.30
25906;DHT22;13713;52.552;13.204;2023-12-29T02:19:57;11.00;90.30
25906;DHT22;13713;52.552;13.204;2023-12-29T02:22:23;11.00;90.30
25906;DHT22;13713;52.552;13.204;2023-12-29T02:24:52;11.00;90.20
25906;DHT22;13713;52.552;13.204;2023-12-29T02:28:04;11.00;90.20
25906;DHT22;13713;52.552;13.204;2023-12-29T02:30:21;11.00;90.20
25906;DHT22;13713;52.552;13.204;2023-12-29T02:32:49;11.00;90.20
25906;DHT22;13713;52.552;13.204;2023-12-29T02:35:25;11.00;90.20
25906;DHT22;13713;52.552;13.204;2023-12-29T02:37:53;11.00;90.30
25906;DHT22;13713;52.552;13.204;2023-12-29T02:40:20;11.10;90.30
25906;DHT22;13713;52.552;13.204;2023-12-29T02:42:47;11.00;90.20
25906;DHT22;13713;52.552;13.204;2023-12-29T02:45:14;11.00;90.10
25906;DHT22;13713;52.552;13.204;2023-12-29T02:47:40;11.00;90.20
25906;DHT22;13713;52.552;13.204;2023-12-29T02:50:06;11.00;90.30
25906;DHT22;13713;52.552;13.204;2023-12-29T02:52:31;11.00;90.30
25906;DHT22;13713;52.552;13.204;2023-12-29T02:54:57;10.90;90.20
25906;DHT22;13713;52.552;13.204;2023-12-29T02:57:23;11.00;90.20
25906;DHT22;13713;52.552;13.204;2023-12-29T02:59:48;11.00;90.20
25906;DHT22;13713;52.552;13.204;2023-12-29T03:02:15;11.00;90.20
25906;DHT22;13713;52.552;13.204;2023-12-29T03:04:41;11.00;90.30
25906;DHT22;13713;52.552;13.204;2023-12-29T03:07:07;11.00;90.20
25906;DHT22;13713;52.552;13.204;2023-12-29T03:09:33;11.10;90.20
25906;DHT22;13713;52.552;13.204;2023-12-29T03:11:59;11.00;90.30
25906;DHT22;13713;52.552;13.204;2023-12-29T03:14:24;11.00;90.30
25906;DHT22;13713;52.552;13.204;2023-12-29T03:16:50;11.00;90.20
25906;DHT22;13713;52.552;13.204;2023-12-29T03:19:16;11.00;90.30
25906;DHT22;13713;52.552;13.204;2023-12-29T03:21:41;11.00;90.20
25906;DHT22;13713;52.552;13.204;2023-12-29T03:24:09;11.00;90.30
25906;DHT22;13713;52.552;13.204;2023-12-29T03:26:35;11.00;90.30
25906;DHT22;13713;52.552;13.204;2023-12-29T03:29:00;11.00;90.30
25906;DHT22;13713;52.552;13.204;2023-12-29T03:31:26;11.00;90.40
25906;DHT22;13713;52.552;13.204;2023-12-29T03:33:52;11.00;90.40
25906;DHT22;13713;52.552;13.204;2023-12-29T03:36:18;10.90;90.30
25906;DHT22;13713;52.552;13.204;2023-12-29T03:38:44;11.00;90.40
25906;DHT22;13713;52.552;13.204;2023-12-29T03:41:09;11.00;90.30
25906;DHT22;13713;52.552;13.204;2023-12-29T03:43:35;10.90;90.20
25906;DHT22;13713;52.552;13.204;2023-12-29T03:46:01;11.00;90.20
25906;DHT22;13713;52.552;13.204;2023-12-29T03:48:26;11.00;90.30
25906;DHT22;13713;52.552;13.204;2023-12-29T03:50:52;11.00;90.30
25906;DHT22;13713;52.552;13.204;2023-12-29T03:53:19;11.00;90.30
25906;DHT22;13713;52.552;13.204;2023-12-29T03:55:45;11.00;90.30
25906;DHT22;13713;52.552;13.204;2023-12-29T03:58:10;11.00;90.30
25906;DHT22;13713;52.552;13.204;2023-12-29T04:00:36;11.00;90.30
25906;DHT22;13713;52.552;13.204;2023-12-29T04:03:02;11.00;90.30
25906;DHT22;13713;52.552;13.204;2023-12-29T04:05:28;11.00;90.30
25906;DHT22;13713;52.552;13.204;2023-12-29T04:07:53;11.00;90.30
25906;DHT22;13713;52.552;13.204;2023-12-29T04:10:19;11.00;90.40
25906;DHT22;13713;52.552;13.204;2023-12-29T04:12:45;11.00;90.30
25906;DHT22;13713;52.552;13.204;2023-12-29T04:15:11;10.90;90.40
25906;DHT22;13713;52.552;13.204;2023-12-29T04:17:37;11.00;90.40
25906;DHT22;13713;52.552;13.204;2023-12-29T04:20:03;11.00;90.30
25906;DHT22;13713;52.552;13.204;2023-12-29T04:22:29;11.00;90.30
25906;DHT22;13713;52.552;13.204;2023-12-29T04:24:54;11.00;90.20
25906;DHT22;13713;52.552;13.204;2023-12-29T04:27:21;11.00;90.30
25906;DHT22;13713;52.552;13.204;2023-12-29T04:29:47;11.00;90.20
25906;DHT22;13713;52.552;13.204;2023-12-29T04:32:13;11.00;90.30
25906;DHT22;13713;52.552;13.204;2023-12-29T04:34:38;11.00;90.20
25906;DHT22;13713;52.552;13.204;2023-12-29T04:37:04;11.00;90.20
25906;DHT22;13713;52.552;13.204;2023-12-29T04:39:30;11.00;90.20
25906;DHT22;13713;52.552;13.204;2023-12-29T04:41:56;11.00;90.10
25906;DHT22;13713;52.552;13.204;2023-12-29T04:44:22;11.00;90.10
25906;DHT22;13713;52.552;13.204;2023-12-29T04:46:48;11.00;90.10
25906;DHT22;13713;52.552;13.204;2023-12-29T04:49:14;11.00;90.20
25906;DHT22;13713;52.552;13.204;2023-12-29T04:51:39;11.00;90.10
25906;DHT22;13713;52.552;13.204;2023-12-29T04:54:05;11.00;90.20
25906;DHT22;13713;52.552;13.204;2023-12-29T04:56:30;11.00;90.10
25906;DHT22;13713;52.552;13.204;2023-12-29T04:58:56;11.00;90.30
25906;DHT22;13713;52.552;13.204;2023-12-29T05:01:22;11.00;90.20
25906;DHT22;13713;52.552;13.204;2023-12-29T05:03:47;11.00;90.20
25906;DHT22;13713;52.552;13.204;2023-12-29T05:06:13;11.00;90.30
25906;DHT22;13713;52.552;13.204;2023-12-29T05:08:39;11.00;90.30
25906;DHT22;13713;52.552;13.204;2023-12-29T05:11:04;11.00;90.40
25906;DHT22;13713;52.552;13.204;2023-12-29T05:13:30;11.00;90.30
25906;DHT22;13713;52.552;13.204;2023-12-29T05:15:56;11.00;90.40
25906;DHT22;13713;52.552;13.204;2023-12-29T05:18:21;11.00;90.40
25906;DHT22;13713;52.552;13.204;2023-12-29T05:20:47;10.90;90.40
25906;DHT22;13713;52.552;13.204;2023-12-29T05:23:12;11.00;90.30
25906;DHT22;13713;52.552;13.204;2023-12-29T05:25:39;11.00;90.40
25906;DHT22;13713;52.552;13.204;2023-12-29T05:28:05;11.00;90.40
25906;DHT22;13713;52.552;13.204;2023-12-29T05:30:30;11.00;90.40
25906;DHT22;13713;52.552;13.204;2023-12-29T05:32:57;10.90;90.30
25906;DHT22;13713;52.552;13.204;2023-12-29T05:35:23;11.00;90.40
25906;DHT22;13713;52.552;13.204;2023-12-29T05:37:49;11.00;90.40
25906;DHT22;13713;52.552;13.204;2023-12-29T05:40:15;11.00;90.40
25906;DHT22;13713;52.552;13.204;2023-12-29T05:42:41;11.00;90.40
25906;DHT22;13713;52.552;13.204;2023-12-29T05:45:07;10.90;90.40
25906;DHT22;13713;52.552;13.204;2023-12-29T05:47:33;11.00;90.40
25906;DHT22;13713;52.552;13.204;2023-12-29T05:49:59;11.00;90.40
25906;DHT22;13713;52.552;13.204;2023-12-29T05:52:24;11.00;90.40
25906;DHT22;13713;52.552;13.204;2023-12-29T05:54:50;11.00;90.30
25906;DHT22;13713;52.552;13.204;2023-12-29T05:57:16;11.00;90.20
25906;DHT22;13713;52.552;13.204;2023-12-29T05:59:41;11.00;90.30
25906;DHT22;13713;52.552;13.204;2023-12-29T06:02:07;11.00;90.30
25906;DHT22;13713;52.552;13.204;2023-12-29T06:04:33;11.00;90.20
25906;DHT22;13713;52.552;13.204;2023-12-29T06:06:58;11.00;90.20
25906;DHT22;13713;52.552;13.204;2023-12-29T06:09:24;11.00;90.40
25906;DHT22;13713;52.552;13.204;2023-12-29T06:11:50;11.00;90.30
25906;DHT22;13713;52.552;13.204;2023-12-29T06:14:16;11.00;90.40
25906;DHT22;13713;52.552;13.204;2023-12-29T06:16:41;11.00;90.30
25906;DHT22;13713;52.552;13.204;2023-12-29T06:19:08;11.00;90.30
25906;DHT22;13713;52.552;13.204;2023-12-29T06:21:34;11.00;90.30
25906;DHT22;13713;52.552;13.204;2023-12-29T06:24:05;11.00;90.30
25906;DHT22;13713;52.552;13.204;2023-12-29T06:26:31;11.00;90.40
25906;DHT22;13713;52.552;13.204;2023-12-29T06:28:56;11.00;90.40
25906;DHT22;13713;52.552;13.204;2023-12-29T06:31:22;11.00;90.40
25906;DHT22;13713;52.552;13.204;2023-12-29T06:33:48;11.00;90.30
25906;DHT22;13713;52.552;13.204;2023-12-29T06:36:14;11.00;90.30
25906;DHT22;13713;52.552;13.204;2023-12-29T06:38:39;11.00;90.30
25906;DHT22;13713;52.552;13.204;2023-12-29T06:41:05;11.00;90.30
25906;DHT22;13713;52.552;13.204;2023-12-29T06:43:31;10.90;90.30
25906;DHT22;13713;52.552;13.204;2023-12-29T06:45:57;11.00;90.30
25906;DHT22;13713;52.552;13.204;2023-12-29T06:48:22;11.00;90.30
25906;DHT22;13713;52.552;13.204;2023-12-29T06:50:48;11.00;90.30
25906;DHT22;13713;52.552;13.204;2023-12-29T06:53:14;11.00;90.30
25906;DHT22;13713;52.552;13.204;2023-12-29T06:55:40;11.00;90.30
25906;DHT22;13713;52.552;13.204;2023-12-29T06:58:06;11.00;90.40
25906;DHT22;13713;52.552;13.204;2023-12-29T07:00:31;11.00;90.30
25906;DHT22;13713;52.552;13.204;2023-12-29T07:02:57;11.00;90.40
25906;DHT22;13713;52.552;13.204;2023-12-29T07:05:22;11.00;90.40
25906;DHT22;13713;52.552;13.204;2023-12-29T07:07:48;11.00;90.30
25906;DHT22;13713;52.552;13.204;2023-12-29T07:10:14;11.00;90.40
25906;DHT22;13713;52.552;13.204;2023-12-29T07:12:42;11.00;90.30
25906;DHT22;13713;52.552;13.204;2023-12-29T07:15:09;11.00;90.30
25906;DHT22;13713;52.552;13.204;2023-12-29T07:17:34;11.00;90.20
25906;DHT22;13713;52.552;13.204;2023-12-29T07:20:00;11.00;90.30
25906;DHT22;13713;52.552;13.204;2023-12-29T07:22:26;11.00;90.20
25906;DHT22;13713;52.552;13.204;2023-12-29T07:24:51;11.00;90.20
25906;DHT22;13713;52.552;13.204;2023-12-29T07:27:17;11.00;90.30
25906;DHT22;13713;52.552;13.204;2023-12-29T07:29:43;11.00;90.30
25906;DHT22;13713;52.552;13.204;2023-12-29T07:32:09;11.00;90.30
25906;DHT22;13713;52.552;13.204;2023-12-29T07:34:34;11.00;90.30
25906;DHT22;13713;52.552;13.204;2023-12-29T07:37:00;11.00;90.30
25906;DHT22;13713;52.552;13.204;2023-12-29T07:39:26;11.00;90.30
25906;DHT22;13713;52.552;13.204;2023-12-29T07:41:51;11.00;90.30
25906;DHT22;13713;52.552;13.204;2023-12-29T07:44:18;11.00;90.30
25906;DHT22;13713;52.552;13.204;2023-12-29T07:46:44;11.00;90.30
25906;DHT22;13713;52.552;13.204;2023-12-29T07:49:10;11.00;90.30
25906;DHT22;13713;52.552;13.204;2023-12-29T07:51:46;11.00;90.20
25906;DHT22;13713;52.552;13.204;2023-12-29T07:54:12;11.00;90.70
25906;DHT22;13713;52.552;13.204;2023-12-29T07:56:38;11.00;90.20
25906;DHT22;13713;52.552;13.204;2023-12-29T07:59:04;11.00;90.20
25906;DHT22;13713;52.552;13.204;2023-12-29T08:01:30;11.00;90.30
25906;DHT22;13713;52.552;13.204;2023-12-29T08:03:55;11.00;90.30
25906;DHT22;13713;52.552;13.204;2023-12-29T08:06:22;11.00;90.40
25906;DHT22;13713;52.552;13.204;2023-12-29T08:08:48;11.00;90.30
25906;DHT22;13713;52.552;13.204;2023-12-29T08:11:16;11.00;90.30
25906;DHT22;13713;52.552;13.204;2023-12-29T08:13:47;11.00;90.30
25906;DHT22;13713;52.552;13.204;2023-12-29T08:16:13;11.00;90.30
25906;DHT22;13713;52.552;13.204;2023-12-29T08:18:39;11.00;90.30
25906;DHT22;13713;52.552;13.204;2023-12-29T08:21:04;11.00;90.30
25906;DHT22;13713;52.552;13.204;2023-12-29T08:23:30;11.00;90.50
25906;DHT22;13713;52.552;13.204;2023-12-29T08:25:57;11.00;90.30
25906;DHT22;13713;52.552;13.204;2023-12-29T08:28:24;11.00;90.20
25906;DHT22;13713;52.552;13.204;2023-12-29T08:30:50;11.00;90.20
25906;DHT22;13713;52.552;13.204;2023-12-29T08:33:15;11.00;90.30
25906;DHT22;13713;52.552;13.204;2023-12-29T08:35:41;11.10;90.20
25906;DHT22;13713;52.552;13.204;2023-12-29T08:38:07;11.10;90.10
25906;DHT22;13713;52.552;13.204;2023-12-29T08:40:33;11.10;90.10
25906;DHT22;13713;52.552;13.204;2023-12-29T08:42:58;11.10;90.10
25906;DHT22;13713;52.552;13.204;2023-12-29T08:45:25;11.10;90.00
25906;DHT22;13713;52.552;13.204;2023-12-29T08:47:51;11.00;90.10
25906;DHT22;13713;52.552;13.204;2023-12-29T08:50:16;11.10;90.00
25906;DHT22;13713;52.552;13.204;2023-12-29T08:52:42;11.10;90.00
25906;DHT22;13713;52.552;13.204;2023-12-29T08:55:08;11.10;90.00
25906;DHT22;13713;52.552;13.204;2023-12-29T08:57:35;11.10;90.10
25906;DHT22;13713;52.552;13.204;2023-12-29T09:00:01;11.10;90.00
25906;DHT22;13713;52.552;13.204;2023-12-29T09:02:26;11.10;90.00
25906;DHT22;13713;52.552;13.204;2023-12-29T09:04:52;11.10;90.00
25906;DHT22;13713;52.552;13.204;2023-12-29T09:07:18;11.10;90.00
25906;DHT22;13713;52.552;13.204;2023-12-29T09:09:43;11.10;90.00
25906;DHT22;13713;52.552;13.204;2023-12-29T09:12:09;11.10;90.00
25906;DHT22;13713;52.552;13.204;2023-12-29T09:14:35;11.10;89.90
25906;DHT22;13713;52.552;13.204;2023-12-29T09:17:01;11.10;90.00
25906;DHT22;13713;52.552;13.204;2023-12-29T09:19:27;11.10;90.00
25906;DHT22;13713;52.552;13.204;2023-12-29T09:21:53;11.10;90.00
25906;DHT22;13713;52.552;13.204;2023-12-29T09:24:18;11.10;90.00
25906;DHT22;13713;52.552;13.204;2023-12-29T09:26:44;11.10;90.00
25906;DHT22;13713;52.552;13.204;2023-12-29T09:29:10;11.10;90.10
25906;DHT22;13713;52.552;13.204;2023-12-29T09:31:36;11.10;90.00
25906;DHT22;13713;52.552;13.204;2023-12-29T09:34:02;11.10;90.00
25906;DHT22;13713;52.552;13.204;2023-12-29T09:36:28;11.20;90.10
25906;DHT22;13713;52.552;13.204;2023-12-29T09:38:53;11.10;90.00
25906;DHT22;13713;52.552;13.204;2023-12-29T09:41:20;11.10;90.00
25906;DHT22;13713;52.552;13.204;2023-12-29T09:43:51;11.10;90.00
25906;DHT22;13713;52.552;13.204;2023-12-29T09:46:17;11.10;90.00
25906;DHT22;13713;52.552;13.204;2023-12-29T09:48:46;11.10;90.10
25906;DHT22;13713;52.552;13.204;2023-12-29T09:51:16;11.10;90.10
25906;DHT22;13713;52.552;13.204;2023-12-29T09:53:42;11.10;90.10
25906;DHT22;13713;52.552;13.204;2023-12-29T09:56:08;11.10;90.10
25906;DHT22;13713;52.552;13.204;2023-12-29T09:58:35;11.10;90.10
25906;DHT22;13713;52.552;13.204;2023-12-29T10:01:06;11.10;90.00
25906;DHT22;13713;52.552;13.204;2023-12-29T10:03:32;11.10;90.10
25906;DHT22;13713;52.552;13.204;2023-12-29T10:06:00;11.10;90.10
25906;DHT22;13713;52.552;13.204;2023-12-29T10:08:27;11.10;90.10
25906;DHT22;13713;52.552;13.204;2023-12-29T10:10:58;11.10;90.10
25906;DHT22;13713;52.552;13.204;2023-12-29T10:13:25;11.10;90.10
25906;DHT22;13713;52.552;13.204;2023-12-29T10:16:15;11.10;90.40
25906;DHT22;13713;52.552;13.204;2023-12-29T10:21:31;11.10;90.20
25906;DHT22;13713;52.552;13.204;2023-12-29T10:24:10;11.10;90.10
25906;DHT22;13713;52.552;13.204;2023-12-29T10:26:39;11.10;90.20
25906;DHT22;13713;52.552;13.204;2023-12-29T10:29:05;11.10;90.20
25906;DHT22;13713;52.552;13.204;2023-12-29T10:31:32;11.10;90.20
25906;DHT22;13713;52.552;13.204;2023-12-29T10:34:22;11.10;90.20
25906;DHT22;13713;52.552;13.204;2023-12-29T10:36:58;11.10;90.10
25906;DHT22;13713;52.552;13.204;2023-12-29T10:39:25;11.10;90.20
25906;DHT22;13713;52.552;13.204;2023-12-29T10:42:03;11.10;90.20
25906;DHT22;13713;52.552;13.204;2023-12-29T10:44:30;11.10;90.20
25906;DHT22;13713;52.552;13.204;2023-12-29T10:46:55;11.10;90.20
25906;DHT22;13713;52.552;13.204;2023-12-29T10:49:21;11.20;90.20
25906;DHT22;13713;52.552;13.204;2023-12-29T10:51:47;11.10;90.20
25906;DHT22;13713;52.552;13.204;2023-12-29T10:54:20;11.10;90.10
25906;DHT22;13713;52.552;13.204;2023-12-29T10:57:01;11.20;90.20
25906;DHT22;13713;52.552;13.204;2023-12-29T10:59:30;11.10;90.10
25906;DHT22;13713;52.552;13.204;2023-12-29T11:01:56;11.10;90.20
25906;DHT22;13713;52.552;13.204;2023-12-29T11:04:22;11.10;90.10
25906;DHT22;13713;52.552;13.204;2023-12-29T11:06:48;11.10;90.20
25906;DHT22;13713;52.552;13.204;2023-12-29T11:09:33;11.10;90.10
25906;DHT22;13713;52.552;13.204;2023-12-29T11:12:01;11.10;90.20
25906;DHT22;13713;52.552;13.204;2023-12-29T11:14:27;11.10;90.20
25906;DHT22;13713;52.552;13.204;2023-12-29T11:16:57;11.10;90.20
25906;DHT22;13713;52.552;13.204;2023-12-29T11:19:24;11.10;90.20
25906;DHT22;13713;52.552;13.204;2023-12-29T11:21:56;11.10;90.20
25906;DHT22;13713;52.552;13.204;2023-12-29T11:24:22;11.10;90.20
25906;DHT22;13713;52.552;13.204;2023-12-29T11:26:51;11.10;90.20
25906;DHT22;13713;52.552;13.204;2023-12-29T11:29:18;11.10;90.20
25906;DHT22;13713;52.552;13.204;2023-12-29T11:31:45;11.10;90.20
25906;DHT22;13713;52.552;13.204;2023-12-29T11:34:28;11.10;90.20
25906;DHT22;13713;52.552;13.204;2023-12-29T11:37:15;11.10;90.20
25906;DHT22;13713;52.552;13.204;2023-12-29T11:39:52;11.10;90.20
25906;DHT22;13713;52.552;13.204;2023-12-29T11:42:23;11.10;90.20
25906;DHT22;13713;52.552;13.204;2023-12-29T11:44:52;11.10;90.20
25906;DHT22;13713;52.552;13.204;2023-12-29T11:47:37;11.10;90.20
25906;DHT22;13713;52.552;13.204;2023-12-29T11:50:04;11.10;90.20
25906;DHT22;13713;52.552;13.204;2023-12-29T11:52:38;11.10;90.20
25906;DHT22;13713;52.552;13.204;2023-12-29T11:55:13;11.10;90.30
25906;DHT22;13713;52.552;13.204;2023-12-29T11:57:43;11.10;90.20
25906;DHT22;13713;52.552;13.204;2023-12-29T12:00:10;11.00;90.20
25906;DHT22;13713;52.552;13.204;2023-12-29T12:02:39;11.10;90.20
25906;DHT22;13713;52.552;13.204;2023-12-29T12:05:05;11.20;90.30
25906;DHT22;13713;52.552;13.204;2023-12-29T12:12:46;11.10;90.30
25906;DHT22;13713;52.552;13.204;2023-12-29T12:15:42;11.10;90.30
25906;DHT22;13713;52.552;13.204;2023-12-29T12:18:11;11.10;90.20
25906;DHT22;13713;52.552;13.204;2023-12-29T12:20:37;11.10;90.30
25906;DHT22;13713;52.552;13.204;2023-12-29T12:23:17;11.10;90.70
25906;DHT22;13713;52.552;13.204;2023-12-29T12:25:45;11.10;90.30
25906;DHT22;13713;52.552;13.204;2023-12-29T12:28:14;11.10;90.30
25906;DHT22;13713;52.552;13.204;2023-12-29T12:30:40;11.10;90.30
25906;DHT22;13713;52.552;13.204;2023-12-29T12:33:05;11.10;90.30
25906;DHT22;13713;52.552;13.204;2023-12-29T12:35:31;11.10;90.30
25906;DHT22;13713;52.552;13.204;2023-12-29T12:38:23;11.10;90.30
25906;DHT22;13713;52.552;13.204;2023-12-29T12:40:50;11.10;90.30
25906;DHT22;13713;52.552;13.204;2023-12-29T12:43:16;11.10;90.30
25906;DHT22;13713;52.552;13.204;2023-12-29T12:45:53;11.10;90.30
25906;DHT22;13713;52.552;13.204;2023-12-29T12:48:24;11.10;90.30
25906;DHT22;13713;52.552;13.204;2023-12-29T12:50:54;11.10;90.30
25906;DHT22;13713;52.552;13.204;2023-12-29T12:53:24;11.10;90.30
25906;DHT22;13713;52.552;13.204;2023-12-29T12:55:50;11.10;90.40
25906;DHT22;13713;52.552;13.204;2023-12-29T12:58:20;11.10;90.50
25906;DHT22;13713;52.552;13.204;2023-12-29T13:00:47;11.20;90.40
25906;DHT22;13713;52.552;13.204;2023-12-29T13:03:14;11.10;90.30
25906;DHT22;13713;52.552;13.204;2023-12-29T13:05:41;11.10;90.50
25906;DHT22;13713;52.552;13.204;2023-12-29T13:08:07;11.10;90.40
25906;DHT22;13713;52.552;13.204;2023-12-29T13:10:33;11.10;90.50
25906;DHT22;13713;52.552;13.204;2023-12-29T13:12:59;11.10;90.90
25906;DHT22;13713;52.552;13.204;2023-12-29T13:15:24;11.10;90.50
25906;DHT22;13713;52.552;13.204;2023-12-29T13:17:51;11.10;90.50
25906;DHT22;13713;52.552;13.204;2023-12-29T13:20:17;11.10;90.50
25906;DHT22;13713;52.552;13.204;2023-12-29T13:22:43;11.10;90.50
25906;DHT22;13713;52.552;13.204;2023-12-29T13:25:10;11.10;90.50
25906;DHT22;13713;52.552;13.204;2023-12-29T13:27:38;11.10;90.60
25906;DHT22;13713;52.552;13.204;2023-12-29T13:30:05;11.10;90.50
25906;DHT22;13713;52.552;13.204;2023-12-29T13:32:31;11.10;90.50
25906;DHT22;13713;52.552;13.204;2023-12-29T13:37:45;11.10;90.60
25906;DHT22;13713;52.552;13.204;2023-12-29T13:40:17;11.10;90.60
25906;DHT22;13713;52.552;13.204;2023-12-29T13:42:48;11.10;90.60
25906;DHT22;13713;52.552;13.204;2023-12-29T13:45:16;11.10;90.60
25906;DHT22;13713;52.552;13.204;2023-12-29T13:47:43;11.10;90.60
25906;DHT22;13713;52.552;13.204;2023-12-29T13:50:10;11.10;90.60
25906;DHT22;13713;52.552;13.204;2023-12-29T13:52:37;11.10;90.60
25906;DHT22;13713;52.552;13.204;2023-12-29T13:55:03;11.10;90.70
25906;DHT22;13713;52.552;13.204;2023-12-29T13:57:32;11.10;90.70
25906;DHT22;13713;52.552;13.204;2023-12-29T14:00:13;11.10;90.70
25906;DHT22;13713;52.552;13.204;2023-12-29T14:02:39;11.10;90.70
25906;DHT22;13713;52.552;13.204;2023-12-29T14:05:18;11.10;90.70
25906;DHT22;13713;52.552;13.204;2023-12-29T14:07:47;11.10;90.70
25906;DHT22;13713;52.552;13.204;2023-12-29T14:10:18;11.10;90.70
25906;DHT22;13713;52.552;13.204;2023-12-29T14:12:44;11.10;90.80
25906;DHT22;13713;52.552;13.204;2023-12-29T14:15:10;11.10;90.90
25906;DHT22;13713;52.552;13.204;2023-12-29T14:17:36;11.10;90.80
25906;DHT22;13713;52.552;13.204;2023-12-29T14:20:05;11.10;90.80
25906;DHT22;13713;52.552;13.204;2023-12-29T14:22:33;11.10;90.80
25906;DHT22;13713;52.552;13.204;2023-12-29T14:25:01;11.10;90.90
25906;DHT22;13713;52.552;13.204;2023-12-29T14:27:28;11.10;90.90
25906;DHT22;13713;52.552;13.204;2023-12-29T14:29:53;11.10;90.80
25906;DHT22;13713;52.552;13.204;2023-12-29T14:32:19;11.10;90.90
25906;DHT22;13713;52.552;13.204;2023-12-29T14:34:50;11.10;90.90
25906;DHT22;13713;52.552;13.204;2023-12-29T14:37:21;11.10;90.90
25906;DHT22;13713;52.552;13.204;2023-12-29T14:39:50;11.10;90.90
25906;DHT22;13713;52.552;13.204;2023-12-29T14:42:17;11.10;91.30
25906;DHT22;13713;52.552;13.204;2023-12-29T14:44:46;11.10;90.90
25906;DHT22;13713;52.552;13.204;2023-12-29T14:47:13;11.10;91.00
25906;DHT22;13713;52.552;13.204;2023-12-29T14:49:39;11.10;91.00
25906;DHT22;13713;52.552;13.204;2023-12-29T14:52:05;11.10;91.00
25906;DHT22;13713;52.552;13.204;2023-12-29T14:54:31;11.10;91.10
25906;DHT22;13713;52.552;13.204;2023-12-29T14:56:57;11.10;91.00
25906;DHT22;13713;52.552;13.204;2023-12-29T14:59:22;11.10;91.10
25906;DHT22;13713;52.552;13.204;2023-12-29T15:01:48;11.10;91.10
25906;DHT22;13713;52.552;13.204;2023-12-29T15:04:13;11.10;91.10
25906;DHT22;13713;52.552;13.204;2023-12-29T15:06:40;11.10;91.00
25906;DHT22;13713;52.552;13.204;2023-12-29T15:09:06;11.10;91.20
25906;DHT22;13713;52.552;13.204;2023-12-29T15:11:33;11.10;91.10
25906;DHT22;13713;52.552;13.204;2023-12-29T15:13:58;11.10;91.10
25906;DHT22;13713;52.552;13.204;2023-12-29T15:16:24;11.10;91.00
25906;DHT22;13713;52.552;13.204;2023-12-29T15:18:50;11.10;91.00
25906;DHT22;13713;52.552;13.204;2023-12-29T15:21:15;11.00;91.00
25906;DHT22;13713;52.552;13.204;2023-12-29T15:23:41;11.10;91.10
25906;DHT22;13713;52.552;13.204;2023-12-29T15:26:07;11.10;91.10